weather.gov     
National Weather Service

Terminal Aerodrome Forecast
NWS Homepage
This page is being discontinued on March 12, 2014.
The same data is available at this site. Please update your bookmarks.
Thank you, and we apologize for the inconvenience.
Please send an email to SR-SRH.Webmaster@noaa.gov with any concerns.


Current Version
Previous Version:    01  02  03  04  05  06  07  08  09  10  11  12  13  14  15  16  17  18  19  20  21  22  23  24  25  26  27  28  29  
[Printable]
781
FTUS45 KSLC 191723
TAFEVW
TAF
KEVW 191723Z 1918/2018 25007KT P6SM BKN060 BKN090
     FM192000 25012G20KT P6SM VCSH SCT040 BKN060
     FM200300 19006KT P6SM SCT060 SCT120
     FM201500 28014KT P6SM FEW120 SCT200=




781
FTUS45 KSLC 191723
TAFEVW
TAF
KEVW 191723Z 1918/2018 25007KT P6SM BKN060 BKN090
     FM192000 25012G20KT P6SM VCSH SCT040 BKN060
     FM200300 19006KT P6SM SCT060 SCT120
     FM201500 28014KT P6SM FEW120 SCT200=


U.S. Dept. of Commerce
NOAA National Weather Service
1325 East West Highway
Silver Spring, MD 20910
E-mail: w-nws.webmaster@noaa.gov
Page last modified: May 16, 2007
NATIONAL WEATHER SERVICE: for Safety, for Work, for Fun - FOR LIFE